sensor_id;sensor_type;location;lat;lon;timestamp;P1;durP1;ratioP1;P2;durP2;ratioP2
291;SDS011;23311;48.776;9.162;2023-04-03T00:01:12;5.40;;;4.00;;
291;SDS011;23311;48.776;9.162;2023-04-03T00:03:40;3.30;;;3.00;;
291;SDS011;23311;48.776;9.162;2023-04-03T00:06:10;2.90;;;2.70;;
291;SDS011;23311;48.776;9.162;2023-04-03T00:08:39;4.83;;;2.97;;
291;SDS011;23311;48.776;9.162;2023-04-03T00:11:08;5.10;;;2.80;;
291;SDS011;23311;48.776;9.162;2023-04-03T00:13:36;3.37;;;2.90;;
291;SDS011;23311;48.776;9.162;2023-04-03T00:16:05;4.37;;;2.97;;
291;SDS011;23311;48.776;9.162;2023-04-03T00:18:35;4.90;;;2.80;;
291;SDS011;23311;48.776;9.162;2023-04-03T00:21:04;3.63;;;2.63;;
291;SDS011;23311;48.776;9.162;2023-04-03T00:23:34;3.70;;;3.10;;
291;SDS011;23311;48.776;9.162;2023-04-03T00:26:02;5.60;;;3.10;;
291;SDS011;23311;48.776;9.162;2023-04-03T00:28:30;4.80;;;2.80;;
291;SDS011;23311;48.776;9.162;2023-04-03T00:30:58;3.70;;;2.80;;
291;SDS011;23311;48.776;9.162;2023-04-03T00:33:26;4.20;;;3.57;;
291;SDS011;23311;48.776;9.162;2023-04-03T00:35:54;4.40;;;2.80;;
291;SDS011;23311;48.776;9.162;2023-04-03T00:38:22;6.60;;;3.50;;
291;SDS011;23311;48.776;9.162;2023-04-03T00:40:52;3.67;;;3.00;;
291;SDS011;23311;48.776;9.162;2023-04-03T00:43:21;3.10;;;2.93;;
291;SDS011;23311;48.776;9.162;2023-04-03T00:45:51;4.97;;;3.80;;
291;SDS011;23311;48.776;9.162;2023-04-03T00:48:20;4.87;;;3.13;;
291;SDS011;23311;48.776;9.162;2023-04-03T00:50:50;5.37;;;3.63;;
291;SDS011;23311;48.776;9.162;2023-04-03T00:53:21;3.27;;;3.10;;
291;SDS011;23311;48.776;9.162;2023-04-03T00:55:54;3.00;;;2.83;;
291;SDS011;23311;48.776;9.162;2023-04-03T00:58:26;3.33;;;3.00;;
291;SDS011;23311;48.776;9.162;2023-04-03T01:00:58;5.07;;;3.80;;
291;SDS011;23311;48.776;9.162;2023-04-03T01:03:30;4.73;;;2.57;;
291;SDS011;23311;48.776;9.162;2023-04-03T01:05:58;3.43;;;2.97;;
291;SDS011;23311;48.776;9.162;2023-04-03T01:08:27;3.40;;;3.23;;
291;SDS011;23311;48.776;9.162;2023-04-03T01:10:56;4.23;;;2.67;;
291;SDS011;23311;48.776;9.162;2023-04-03T01:13:25;3.93;;;2.83;;
291;SDS011;23311;48.776;9.162;2023-04-03T01:15:55;3.67;;;3.20;;
291;SDS011;23311;48.776;9.162;2023-04-03T01:18:24;4.10;;;3.27;;
291;SDS011;23311;48.776;9.162;2023-04-03T01:26:53;4.60;;;2.47;;
291;SDS011;23311;48.776;9.162;2023-04-03T01:29:21;4.07;;;3.10;;
291;SDS011;23311;48.776;9.162;2023-04-03T01:31:52;3.33;;;2.80;;
291;SDS011;23311;48.776;9.162;2023-04-03T01:34:22;4.40;;;3.23;;
291;SDS011;23311;48.776;9.162;2023-04-03T01:36:50;3.07;;;2.87;;
291;SDS011;23311;48.776;9.162;2023-04-03T01:39:19;4.50;;;2.80;;
291;SDS011;23311;48.776;9.162;2023-04-03T01:41:48;3.40;;;2.63;;
291;SDS011;23311;48.776;9.162;2023-04-03T01:44:17;3.50;;;2.70;;
291;SDS011;23311;48.776;9.162;2023-04-03T01:46:45;3.27;;;3.10;;
291;SDS011;23311;48.776;9.162;2023-04-03T01:49:14;4.60;;;2.60;;
291;SDS011;23311;48.776;9.162;2023-04-03T01:51:42;3.47;;;3.00;;
291;SDS011;23311;48.776;9.162;2023-04-03T01:54:10;4.23;;;3.20;;
291;SDS011;23311;48.776;9.162;2023-04-03T01:56:39;4.87;;;3.00;;
291;SDS011;23311;48.776;9.162;2023-04-03T01:59:07;4.80;;;2.80;;
291;SDS011;23311;48.776;9.162;2023-04-03T02:01:35;3.33;;;3.00;;
291;SDS011;23311;48.776;9.162;2023-04-03T02:04:04;3.43;;;3.07;;
291;SDS011;23311;48.776;9.162;2023-04-03T02:06:34;3.97;;;3.07;;
291;SDS011;23311;48.776;9.162;2023-04-03T02:09:02;3.43;;;3.20;;
291;SDS011;23311;48.776;9.162;2023-04-03T02:11:30;4.03;;;3.27;;
291;SDS011;23311;48.776;9.162;2023-04-03T02:13:58;3.63;;;3.50;;
291;SDS011;23311;48.776;9.162;2023-04-03T02:16:27;4.23;;;3.20;;
291;SDS011;23311;48.776;9.162;2023-04-03T02:18:55;3.40;;;3.00;;
291;SDS011;23311;48.776;9.162;2023-04-03T02:21:23;4.00;;;3.70;;
291;SDS011;23311;48.776;9.162;2023-04-03T02:23:53;3.90;;;2.80;;
291;SDS011;23311;48.776;9.162;2023-04-03T02:26:21;4.30;;;3.10;;
291;SDS011;23311;48.776;9.162;2023-04-03T02:28:49;3.57;;;3.07;;
291;SDS011;23311;48.776;9.162;2023-04-03T02:31:17;2.97;;;2.57;;
291;SDS011;23311;48.776;9.162;2023-04-03T02:33:45;5.27;;;3.17;;
291;SDS011;23311;48.776;9.162;2023-04-03T02:36:13;3.60;;;3.20;;
291;SDS011;23311;48.776;9.162;2023-04-03T02:38:41;3.80;;;2.60;;
291;SDS011;23311;48.776;9.162;2023-04-03T02:41:11;3.40;;;2.90;;
291;SDS011;23311;48.776;9.162;2023-04-03T02:43:40;3.60;;;2.87;;
291;SDS011;23311;48.776;9.162;2023-04-03T02:46:08;3.53;;;2.60;;
291;SDS011;23311;48.776;9.162;2023-04-03T02:48:36;3.77;;;3.37;;
291;SDS011;23311;48.776;9.162;2023-04-03T02:51:04;2.90;;;2.77;;
291;SDS011;23311;48.776;9.162;2023-04-03T02:53:32;3.47;;;3.03;;
291;SDS011;23311;48.776;9.162;2023-04-03T02:56:00;3.00;;;2.87;;
291;SDS011;23311;48.776;9.162;2023-04-03T02:58:30;3.13;;;2.83;;
291;SDS011;23311;48.776;9.162;2023-04-03T03:00:58;3.70;;;3.17;;
291;SDS011;23311;48.776;9.162;2023-04-03T03:03:26;3.80;;;3.13;;
291;SDS011;23311;48.776;9.162;2023-04-03T03:06:00;5.23;;;3.20;;
291;SDS011;23311;48.776;9.162;2023-04-03T03:08:29;3.30;;;2.80;;
291;SDS011;23311;48.776;9.162;2023-04-03T03:10:57;3.67;;;3.30;;
291;SDS011;23311;48.776;9.162;2023-04-03T03:13:25;4.00;;;2.83;;
291;SDS011;23311;48.776;9.162;2023-04-03T03:15:55;3.23;;;2.90;;
291;SDS011;23311;48.776;9.162;2023-04-03T03:18:23;3.40;;;3.13;;
291;SDS011;23311;48.776;9.162;2023-04-03T03:20:52;4.23;;;2.90;;
291;SDS011;23311;48.776;9.162;2023-04-03T03:23:20;4.13;;;3.07;;
291;SDS011;23311;48.776;9.162;2023-04-03T03:25:53;3.40;;;2.90;;
291;SDS011;23311;48.776;9.162;2023-04-03T03:28:22;2.73;;;2.57;;
291;SDS011;23311;48.776;9.162;2023-04-03T03:30:51;3.10;;;2.70;;
291;SDS011;23311;48.776;9.162;2023-04-03T03:33:20;3.60;;;3.00;;
291;SDS011;23311;48.776;9.162;2023-04-03T03:35:51;8.00;;;2.83;;
291;SDS011;23311;48.776;9.162;2023-04-03T03:38:20;4.70;;;2.60;;
291;SDS011;23311;48.776;9.162;2023-04-03T03:40:48;3.30;;;2.17;;
291;SDS011;23311;48.776;9.162;2023-04-03T03:43:17;2.97;;;2.37;;
291;SDS011;23311;48.776;9.162;2023-04-03T03:45:49;3.43;;;2.83;;
291;SDS011;23311;48.776;9.162;2023-04-03T03:48:18;3.10;;;2.67;;
291;SDS011;23311;48.776;9.162;2023-04-03T03:50:48;3.63;;;2.97;;
291;SDS011;23311;48.776;9.162;2023-04-03T03:53:17;3.63;;;3.40;;
291;SDS011;23311;48.776;9.162;2023-04-03T03:55:45;2.77;;;2.50;;
291;SDS011;23311;48.776;9.162;2023-04-03T03:58:13;2.70;;;2.60;;
291;SDS011;23311;48.776;9.162;2023-04-03T04:00:41;3.00;;;2.77;;
291;SDS011;23311;48.776;9.162;2023-04-03T04:03:09;3.00;;;2.77;;
291;SDS011;23311;48.776;9.162;2023-04-03T04:05:38;3.60;;;2.30;;
291;SDS011;23311;48.776;9.162;2023-04-03T04:08:07;3.23;;;2.73;;
291;SDS011;23311;48.776;9.162;2023-04-03T04:10:35;4.03;;;2.77;;
291;SDS011;23311;48.776;9.162;2023-04-03T04:13:05;2.83;;;2.30;;
291;SDS011;23311;48.776;9.162;2023-04-03T04:15:33;2.50;;;2.17;;
291;SDS011;23311;48.776;9.162;2023-04-03T04:18:01;3.17;;;2.70;;
291;SDS011;23311;48.776;9.162;2023-04-03T04:20:30;4.00;;;3.03;;
291;SDS011;23311;48.776;9.162;2023-04-03T04:22:57;4.43;;;2.57;;
291;SDS011;23311;48.776;9.162;2023-04-03T04:25:27;3.17;;;2.77;;
291;SDS011;23311;48.776;9.162;2023-04-03T04:27:55;3.03;;;2.50;;
291;SDS011;23311;48.776;9.162;2023-04-03T04:30:23;3.10;;;2.70;;
291;SDS011;23311;48.776;9.162;2023-04-03T04:32:51;2.87;;;2.57;;
291;SDS011;23311;48.776;9.162;2023-04-03T04:35:19;2.83;;;2.37;;
291;SDS011;23311;48.776;9.162;2023-04-03T04:37:47;4.13;;;3.00;;
291;SDS011;23311;48.776;9.162;2023-04-03T04:40:16;3.40;;;2.87;;
291;SDS011;23311;48.776;9.162;2023-04-03T04:42:46;3.10;;;2.33;;
291;SDS011;23311;48.776;9.162;2023-04-03T04:45:14;3.07;;;2.77;;
291;SDS011;23311;48.776;9.162;2023-04-03T04:47:42;2.50;;;2.37;;
291;SDS011;23311;48.776;9.162;2023-04-03T04:50:10;3.50;;;3.03;;
291;SDS011;23311;48.776;9.162;2023-04-03T04:52:39;3.60;;;2.40;;
291;SDS011;23311;48.776;9.162;2023-04-03T04:55:07;3.47;;;2.50;;
291;SDS011;23311;48.776;9.162;2023-04-03T04:57:35;3.50;;;2.73;;
291;SDS011;23311;48.776;9.162;2023-04-03T05:00:07;3.00;;;2.40;;
291;SDS011;23311;48.776;9.162;2023-04-03T05:02:36;2.80;;;2.40;;
291;SDS011;23311;48.776;9.162;2023-04-03T05:05:04;3.30;;;2.53;;
291;SDS011;23311;48.776;9.162;2023-04-03T05:07:32;3.33;;;2.50;;
291;SDS011;23311;48.776;9.162;2023-04-03T05:10:01;3.27;;;2.73;;
291;SDS011;23311;48.776;9.162;2023-04-03T05:12:30;3.77;;;2.80;;
291;SDS011;23311;48.776;9.162;2023-04-03T05:14:58;4.13;;;2.50;;
291;SDS011;23311;48.776;9.162;2023-04-03T05:17:27;2.90;;;2.33;;
291;SDS011;23311;48.776;9.162;2023-04-03T05:19:55;3.40;;;2.60;;
291;SDS011;23311;48.776;9.162;2023-04-03T05:22:23;4.07;;;2.87;;
291;SDS011;23311;48.776;9.162;2023-04-03T05:24:51;3.00;;;2.70;;
291;SDS011;23311;48.776;9.162;2023-04-03T05:27:19;3.00;;;2.67;;
291;SDS011;23311;48.776;9.162;2023-04-03T05:29:49;3.10;;;2.40;;
291;SDS011;23311;48.776;9.162;2023-04-03T05:32:17;2.73;;;2.33;;
291;SDS011;23311;48.776;9.162;2023-04-03T05:34:47;3.97;;;3.10;;
291;SDS011;23311;48.776;9.162;2023-04-03T05:37:16;3.40;;;2.63;;
291;SDS011;23311;48.776;9.162;2023-04-03T05:39:44;4.83;;;2.50;;
291;SDS011;23311;48.776;9.162;2023-04-03T05:42:12;3.40;;;2.20;;
291;SDS011;23311;48.776;9.162;2023-04-03T05:44:41;2.67;;;2.30;;
291;SDS011;23311;48.776;9.162;2023-04-03T05:47:09;3.97;;;2.83;;
291;SDS011;23311;48.776;9.162;2023-04-03T05:49:37;3.80;;;2.60;;
291;SDS011;23311;48.776;9.162;2023-04-03T05:52:10;2.87;;;2.23;;
291;SDS011;23311;48.776;9.162;2023-04-03T05:54:45;3.23;;;2.60;;
291;SDS011;23311;48.776;9.162;2023-04-03T05:57:15;5.50;;;2.90;;
291;SDS011;23311;48.776;9.162;2023-04-03T05:59:43;4.17;;;2.40;;
291;SDS011;23311;48.776;9.162;2023-04-03T06:02:13;4.50;;;2.93;;
291;SDS011;23311;48.776;9.162;2023-04-03T06:04:42;2.90;;;2.30;;
291;SDS011;23311;48.776;9.162;2023-04-03T06:07:13;3.47;;;2.53;;
291;SDS011;23311;48.776;9.162;2023-04-03T06:09:42;3.20;;;2.53;;
291;SDS011;23311;48.776;9.162;2023-04-03T06:12:11;2.70;;;2.53;;
291;SDS011;23311;48.776;9.162;2023-04-03T06:14:39;4.50;;;2.87;;
291;SDS011;23311;48.776;9.162;2023-04-03T06:17:07;3.60;;;2.53;;
291;SDS011;23311;48.776;9.162;2023-04-03T06:19:36;3.90;;;2.37;;
291;SDS011;23311;48.776;9.162;2023-04-03T06:22:04;3.10;;;2.80;;
291;SDS011;23311;48.776;9.162;2023-04-03T06:24:33;3.47;;;2.90;;
291;SDS011;23311;48.776;9.162;2023-04-03T06:27:01;16.13;;;3.00;;
291;SDS011;23311;48.776;9.162;2023-04-03T06:29:30;3.63;;;2.33;;
291;SDS011;23311;48.776;9.162;2023-04-03T06:32:04;3.50;;;2.60;;
291;SDS011;23311;48.776;9.162;2023-04-03T06:34:35;3.00;;;2.80;;
291;SDS011;23311;48.776;9.162;2023-04-03T06:37:03;4.57;;;3.00;;
291;SDS011;23311;48.776;9.162;2023-04-03T06:39:31;3.87;;;2.87;;
291;SDS011;23311;48.776;9.162;2023-04-03T06:42:01;4.80;;;2.60;;
291;SDS011;23311;48.776;9.162;2023-04-03T06:44:29;2.70;;;2.30;;
291;SDS011;23311;48.776;9.162;2023-04-03T06:46:57;3.67;;;2.30;;
291;SDS011;23311;48.776;9.162;2023-04-03T06:49:25;3.33;;;2.30;;
291;SDS011;23311;48.776;9.162;2023-04-03T06:51:54;3.50;;;2.80;;
291;SDS011;23311;48.776;9.162;2023-04-03T06:54:22;3.70;;;2.33;;
291;SDS011;23311;48.776;9.162;2023-04-03T06:56:52;4.27;;;2.70;;
291;SDS011;23311;48.776;9.162;2023-04-03T06:59:20;2.60;;;2.47;;
291;SDS011;23311;48.776;9.162;2023-04-03T07:01:49;5.30;;;2.50;;
291;SDS011;23311;48.776;9.162;2023-04-03T07:04:17;3.40;;;2.63;;
291;SDS011;23311;48.776;9.162;2023-04-03T07:06:46;2.63;;;2.47;;
291;SDS011;23311;48.776;9.162;2023-04-03T07:09:14;3.30;;;2.63;;
291;SDS011;23311;48.776;9.162;2023-04-03T07:11:43;4.10;;;2.70;;
291;SDS011;23311;48.776;9.162;2023-04-03T07:14:12;4.27;;;2.27;;
291;SDS011;23311;48.776;9.162;2023-04-03T07:16:41;2.83;;;2.30;;
291;SDS011;23311;48.776;9.162;2023-04-03T07:19:09;3.73;;;2.60;;
291;SDS011;23311;48.776;9.162;2023-04-03T07:21:37;3.43;;;2.20;;
291;SDS011;23311;48.776;9.162;2023-04-03T07:24:07;4.43;;;2.87;;
291;SDS011;23311;48.776;9.162;2023-04-03T07:26:41;5.10;;;2.90;;
291;SDS011;23311;48.776;9.162;2023-04-03T07:29:09;3.43;;;2.70;;
291;SDS011;23311;48.776;9.162;2023-04-03T07:31:39;3.30;;;2.20;;
291;SDS011;23311;48.776;9.162;2023-04-03T07:34:08;3.57;;;2.43;;
291;SDS011;23311;48.776;9.162;2023-04-03T07:36:36;4.60;;;2.83;;
291;SDS011;23311;48.776;9.162;2023-04-03T07:39:04;4.77;;;3.37;;
291;SDS011;23311;48.776;9.162;2023-04-03T07:41:33;3.23;;;2.50;;
291;SDS011;23311;48.776;9.162;2023-04-03T07:44:01;5.93;;;2.90;;
291;SDS011;23311;48.776;9.162;2023-04-03T07:46:31;4.53;;;2.70;;
291;SDS011;23311;48.776;9.162;2023-04-03T07:49:00;3.90;;;2.67;;
291;SDS011;23311;48.776;9.162;2023-04-03T07:51:28;6.60;;;3.30;;
291;SDS011;23311;48.776;9.162;2023-04-03T07:53:57;3.90;;;2.70;;
291;SDS011;23311;48.776;9.162;2023-04-03T07:56:25;3.43;;;2.40;;
291;SDS011;23311;48.776;9.162;2023-04-03T07:58:53;4.10;;;2.80;;
291;SDS011;23311;48.776;9.162;2023-04-03T08:01:22;2.53;;;2.20;;
291;SDS011;23311;48.776;9.162;2023-04-03T08:03:50;3.27;;;2.60;;
291;SDS011;23311;48.776;9.162;2023-04-03T08:06:20;3.17;;;2.67;;
291;SDS011;23311;48.776;9.162;2023-04-03T08:09:08;3.00;;;2.40;;
291;SDS011;23311;48.776;9.162;2023-04-03T08:11:38;3.73;;;2.40;;
291;SDS011;23311;48.776;9.162;2023-04-03T08:14:06;5.17;;;2.83;;
291;SDS011;23311;48.776;9.162;2023-04-03T08:16:34;2.80;;;2.40;;
291;SDS011;23311;48.776;9.162;2023-04-03T08:19:02;4.20;;;3.40;;
291;SDS011;23311;48.776;9.162;2023-04-03T08:21:36;5.23;;;2.77;;
291;SDS011;23311;48.776;9.162;2023-04-03T08:24:06;3.63;;;2.60;;
291;SDS011;23311;48.776;9.162;2023-04-03T08:26:35;4.20;;;2.90;;
291;SDS011;23311;48.776;9.162;2023-04-03T08:29:03;3.10;;;2.77;;
291;SDS011;23311;48.776;9.162;2023-04-03T08:31:31;2.60;;;2.30;;
291;SDS011;23311;48.776;9.162;2023-04-03T08:33:59;3.23;;;2.40;;
291;SDS011;23311;48.776;9.162;2023-04-03T08:36:28;6.57;;;2.97;;
291;SDS011;23311;48.776;9.162;2023-04-03T08:38:58;4.37;;;3.27;;
291;SDS011;23311;48.776;9.162;2023-04-03T08:41:29;4.33;;;3.00;;
291;SDS011;23311;48.776;9.162;2023-04-03T08:44:04;3.80;;;2.80;;
291;SDS011;23311;48.776;9.162;2023-04-03T08:46:46;4.73;;;3.33;;
291;SDS011;23311;48.776;9.162;2023-04-03T08:49:24;3.83;;;2.70;;
291;SDS011;23311;48.776;9.162;2023-04-03T08:51:57;3.97;;;3.10;;
291;SDS011;23311;48.776;9.162;2023-04-03T08:54:30;4.47;;;2.30;;
291;SDS011;23311;48.776;9.162;2023-04-03T08:57:01;8.33;;;2.30;;
291;SDS011;23311;48.776;9.162;2023-04-03T08:59:32;3.63;;;2.50;;
291;SDS011;23311;48.776;9.162;2023-04-03T09:02:03;3.17;;;2.40;;
291;SDS011;23311;48.776;9.162;2023-04-03T09:04:43;3.13;;;2.93;;
291;SDS011;23311;48.776;9.162;2023-04-03T09:07:13;4.40;;;2.20;;
291;SDS011;23311;48.776;9.162;2023-04-03T09:09:51;3.13;;;2.20;;
291;SDS011;23311;48.776;9.162;2023-04-03T09:12:20;2.80;;;2.63;;
291;SDS011;23311;48.776;9.162;2023-04-03T09:14:55;7.93;;;2.63;;
291;SDS011;23311;48.776;9.162;2023-04-03T09:17:35;5.10;;;2.60;;
291;SDS011;23311;48.776;9.162;2023-04-03T09:20:13;4.37;;;2.57;;
291;SDS011;23311;48.776;9.162;2023-04-03T09:22:46;3.80;;;2.63;;
291;SDS011;23311;48.776;9.162;2023-04-03T09:25:20;5.30;;;2.97;;
291;SDS011;23311;48.776;9.162;2023-04-03T09:27:50;2.47;;;2.30;;
291;SDS011;23311;48.776;9.162;2023-04-03T09:30:20;3.47;;;2.40;;
291;SDS011;23311;48.776;9.162;2023-04-03T09:32:50;2.93;;;2.30;;
291;SDS011;23311;48.776;9.162;2023-04-03T09:35:21;3.07;;;2.23;;
291;SDS011;23311;48.776;9.162;2023-04-03T09:38:14;4.60;;;2.20;;
291;SDS011;23311;48.776;9.162;2023-04-03T09:40:46;3.70;;;2.37;;
291;SDS011;23311;48.776;9.162;2023-04-03T09:43:21;3.43;;;2.50;;
291;SDS011;23311;48.776;9.162;2023-04-03T09:45:52;6.30;;;3.20;;
291;SDS011;23311;48.776;9.162;2023-04-03T09:48:22;6.93;;;2.60;;
291;SDS011;23311;48.776;9.162;2023-04-03T09:51:01;2.37;;;2.10;;
291;SDS011;23311;48.776;9.162;2023-04-03T09:53:30;4.00;;;2.10;;
291;SDS011;23311;48.776;9.162;2023-04-03T09:56:03;3.17;;;2.23;;
291;SDS011;23311;48.776;9.162;2023-04-03T09:58:46;4.47;;;2.00;;
291;SDS011;23311;48.776;9.162;2023-04-03T10:01:23;3.77;;;2.20;;
291;SDS011;23311;48.776;9.162;2023-04-03T10:04:06;3.00;;;2.10;;
291;SDS011;23311;48.776;9.162;2023-04-03T10:06:37;2.30;;;2.07;;
291;SDS011;23311;48.776;9.162;2023-04-03T10:09:19;4.77;;;2.87;;
291;SDS011;23311;48.776;9.162;2023-04-03T10:12:00;5.07;;;2.47;;
291;SDS011;23311;48.776;9.162;2023-04-03T10:14:31;6.20;;;2.40;;
291;SDS011;23311;48.776;9.162;2023-04-03T10:17:09;4.00;;;2.53;;
291;SDS011;23311;48.776;9.162;2023-04-03T10:19:46;3.20;;;2.83;;
291;SDS011;23311;48.776;9.162;2023-04-03T10:22:19;3.07;;;2.20;;
291;SDS011;23311;48.776;9.162;2023-04-03T10:24:59;6.87;;;3.40;;
291;SDS011;23311;48.776;9.162;2023-04-03T10:27:35;2.73;;;2.00;;
291;SDS011;23311;48.776;9.162;2023-04-03T10:33:14;3.23;;;2.37;;
291;SDS011;23311;48.776;9.162;2023-04-03T10:35:52;2.50;;;1.70;;
291;SDS011;23311;48.776;9.162;2023-04-03T10:38:31;3.97;;;2.40;;
291;SDS011;23311;48.776;9.162;2023-04-03T10:41:06;5.40;;;2.33;;
291;SDS011;23311;48.776;9.162;2023-04-03T10:43:44;3.70;;;2.60;;
291;SDS011;23311;48.776;9.162;2023-04-03T10:46:20;5.47;;;3.93;;
291;SDS011;23311;48.776;9.162;2023-04-03T10:48:57;5.10;;;2.40;;
291;SDS011;23311;48.776;9.162;2023-04-03T10:51:38;3.20;;;2.40;;
291;SDS011;23311;48.776;9.162;2023-04-03T10:54:11;2.57;;;2.20;;
291;SDS011;23311;48.776;9.162;2023-04-03T10:56:41;8.50;;;2.50;;
291;SDS011;23311;48.776;9.162;2023-04-03T10:59:28;4.13;;;1.80;;
291;SDS011;23311;48.776;9.162;2023-04-03T11:01:59;3.50;;;2.60;;
291;SDS011;23311;48.776;9.162;2023-04-03T11:04:34;5.33;;;2.90;;
291;SDS011;23311;48.776;9.162;2023-04-03T11:07:04;2.40;;;1.90;;
291;SDS011;23311;48.776;9.162;2023-04-03T11:09:39;3.37;;;2.47;;
291;SDS011;23311;48.776;9.162;2023-04-03T11:12:10;5.53;;;2.17;;
291;SDS011;23311;48.776;9.162;2023-04-03T11:14:44;3.90;;;1.67;;
291;SDS011;23311;48.776;9.162;2023-04-03T11:17:19;1.77;;;1.70;;
291;SDS011;23311;48.776;9.162;2023-04-03T11:19:59;2.20;;;2.00;;
291;SDS011;23311;48.776;9.162;2023-04-03T11:22:34;2.03;;;1.30;;
291;SDS011;23311;48.776;9.162;2023-04-03T11:25:13;2.40;;;1.60;;
291;SDS011;23311;48.776;9.162;2023-04-03T11:27:47;2.13;;;1.60;;
291;SDS011;23311;48.776;9.162;2023-04-03T11:30:20;6.10;;;2.03;;
291;SDS011;23311;48.776;9.162;2023-04-03T11:33:02;2.70;;;1.90;;
291;SDS011;23311;48.776;9.162;2023-04-03T11:35:42;2.53;;;1.80;;
291;SDS011;23311;48.776;9.162;2023-04-03T11:38:14;3.27;;;2.00;;
291;SDS011;23311;48.776;9.162;2023-04-03T11:40:49;2.50;;;2.30;;
291;SDS011;23311;48.776;9.162;2023-04-03T11:43:21;2.67;;;1.87;;
291;SDS011;23311;48.776;9.162;2023-04-03T11:45:54;4.70;;;2.20;;
291;SDS011;23311;48.776;9.162;2023-04-03T11:48:41;3.10;;;1.73;;
291;SDS011;23311;48.776;9.162;2023-04-03T11:57:22;3.40;;;1.67;;
291;SDS011;23311;48.776;9.162;2023-04-03T12:00:48;2.67;;;2.47;;
291;SDS011;23311;48.776;9.162;2023-04-03T12:12:57;4.80;;;2.13;;
291;SDS011;23311;48.776;9.162;2023-04-03T12:21:23;2.00;;;1.60;;
291;SDS011;23311;48.776;9.162;2023-04-03T12:23:56;3.70;;;1.90;;
291;SDS011;23311;48.776;9.162;2023-04-03T12:26:29;2.43;;;1.83;;
291;SDS011;23311;48.776;9.162;2023-04-03T12:29:15;3.70;;;2.10;;
291;SDS011;23311;48.776;9.162;2023-04-03T12:31:50;3.20;;;1.40;;
291;SDS011;23311;48.776;9.162;2023-04-03T12:34:41;3.63;;;1.80;;
291;SDS011;23311;48.776;9.162;2023-04-03T12:37:20;2.50;;;1.80;;
291;SDS011;23311;48.776;9.162;2023-04-03T12:40:02;3.97;;;1.90;;
291;SDS011;23311;48.776;9.162;2023-04-03T12:42:55;2.70;;;1.60;;
291;SDS011;23311;48.776;9.162;2023-04-03T12:45:40;3.70;;;2.00;;
291;SDS011;23311;48.776;9.162;2023-04-03T12:48:12;3.70;;;2.03;;
291;SDS011;23311;48.776;9.162;2023-04-03T12:50:44;5.27;;;2.37;;
291;SDS011;23311;48.776;9.162;2023-04-03T12:53:15;3.87;;;1.50;;
291;SDS011;23311;48.776;9.162;2023-04-03T12:55:46;2.80;;;1.47;;
291;SDS011;23311;48.776;9.162;2023-04-03T12:58:15;2.90;;;2.10;;
291;SDS011;23311;48.776;9.162;2023-04-03T13:00:58;4.07;;;2.17;;
291;SDS011;23311;48.776;9.162;2023-04-03T13:03:28;5.13;;;1.83;;
291;SDS011;23311;48.776;9.162;2023-04-03T13:05:59;3.63;;;2.00;;
291;SDS011;23311;48.776;9.162;2023-04-03T13:08:29;2.87;;;2.00;;
291;SDS011;23311;48.776;9.162;2023-04-03T13:10:59;3.63;;;2.10;;
291;SDS011;23311;48.776;9.162;2023-04-03T13:13:30;1.97;;;1.60;;
291;SDS011;23311;48.776;9.162;2023-04-03T13:15:58;3.10;;;1.80;;
291;SDS011;23311;48.776;9.162;2023-04-03T13:18:28;1.90;;;1.40;;
291;SDS011;23311;48.776;9.162;2023-04-03T13:21:00;4.70;;;1.87;;
291;SDS011;23311;48.776;9.162;2023-04-03T13:23:32;2.77;;;1.67;;
291;SDS011;23311;48.776;9.162;2023-04-03T13:26:03;5.30;;;1.83;;
291;SDS011;23311;48.776;9.162;2023-04-03T13:28:32;3.00;;;1.90;;
291;SDS011;23311;48.776;9.162;2023-04-03T13:31:03;3.23;;;2.20;;
291;SDS011;23311;48.776;9.162;2023-04-03T13:33:37;2.70;;;1.93;;
291;SDS011;23311;48.776;9.162;2023-04-03T13:36:10;2.10;;;1.73;;
291;SDS011;23311;48.776;9.162;2023-04-03T13:38:45;2.63;;;1.97;;
291;SDS011;23311;48.776;9.162;2023-04-03T13:41:25;2.73;;;1.60;;
291;SDS011;23311;48.776;9.162;2023-04-03T13:43:56;3.20;;;1.93;;
291;SDS011;23311;48.776;9.162;2023-04-03T13:46:41;4.23;;;2.10;;
291;SDS011;23311;48.776;9.162;2023-04-03T13:49:20;2.30;;;1.50;;
291;SDS011;23311;48.776;9.162;2023-04-03T13:51:51;4.63;;;1.90;;
291;SDS011;23311;48.776;9.162;2023-04-03T13:54:33;2.93;;;2.00;;
291;SDS011;23311;48.776;9.162;2023-04-03T13:57:10;4.03;;;1.93;;
291;SDS011;23311;48.776;9.162;2023-04-03T13:59:41;3.53;;;1.77;;
291;SDS011;23311;48.776;9.162;2023-04-03T14:02:12;2.50;;;1.60;;
291;SDS011;23311;48.776;9.162;2023-04-03T14:04:45;2.60;;;1.80;;
291;SDS011;23311;48.776;9.162;2023-04-03T14:07:17;1.80;;;1.30;;
291;SDS011;23311;48.776;9.162;2023-04-03T14:09:46;3.10;;;2.40;;
291;SDS011;23311;48.776;9.162;2023-04-03T14:12:16;2.30;;;2.10;;
291;SDS011;23311;48.776;9.162;2023-04-03T14:14:57;2.40;;;1.60;;
291;SDS011;23311;48.776;9.162;2023-04-03T14:17:25;2.27;;;1.83;;
291;SDS011;23311;48.776;9.162;2023-04-03T14:19:55;2.83;;;1.90;;
291;SDS011;23311;48.776;9.162;2023-04-03T14:22:26;2.60;;;2.00;;
291;SDS011;23311;48.776;9.162;2023-04-03T14:24:56;1.93;;;1.53;;
291;SDS011;23311;48.776;9.162;2023-04-03T14:27:25;4.90;;;2.27;;
291;SDS011;23311;48.776;9.162;2023-04-03T14:29:56;2.10;;;1.80;;
291;SDS011;23311;48.776;9.162;2023-04-03T14:32:25;3.20;;;2.17;;
291;SDS011;23311;48.776;9.162;2023-04-03T14:34:54;2.20;;;1.87;;
291;SDS011;23311;48.776;9.162;2023-04-03T14:37:24;2.30;;;1.87;;
291;SDS011;23311;48.776;9.162;2023-04-03T14:39:56;4.13;;;1.90;;
291;SDS011;23311;48.776;9.162;2023-04-03T14:42:26;2.93;;;2.17;;
291;SDS011;23311;48.776;9.162;2023-04-03T14:44:56;2.80;;;1.80;;
291;SDS011;23311;48.776;9.162;2023-04-03T14:47:25;2.77;;;2.17;;
291;SDS011;23311;48.776;9.162;2023-04-03T14:49:58;3.83;;;1.77;;
291;SDS011;23311;48.776;9.162;2023-04-03T14:52:29;2.10;;;1.60;;
291;SDS011;23311;48.776;9.162;2023-04-03T14:54:59;3.40;;;2.30;;
291;SDS011;23311;48.776;9.162;2023-04-03T14:57:29;4.80;;;2.00;;
291;SDS011;23311;48.776;9.162;2023-04-03T14:59:57;5.40;;;1.40;;
291;SDS011;23311;48.776;9.162;2023-04-03T15:02:29;2.00;;;1.57;;
291;SDS011;23311;48.776;9.162;2023-04-03T15:05:02;3.93;;;2.40;;
291;SDS011;23311;48.776;9.162;2023-04-03T15:07:33;4.37;;;1.90;;
291;SDS011;23311;48.776;9.162;2023-04-03T15:10:05;4.53;;;2.53;;
291;SDS011;23311;48.776;9.162;2023-04-03T15:12:42;2.00;;;1.47;;
291;SDS011;23311;48.776;9.162;2023-04-03T15:15:10;2.43;;;1.80;;
291;SDS011;23311;48.776;9.162;2023-04-03T15:17:39;3.47;;;2.33;;
291;SDS011;23311;48.776;9.162;2023-04-03T15:20:10;3.43;;;1.97;;
291;SDS011;23311;48.776;9.162;2023-04-03T15:22:41;5.47;;;1.90;;
291;SDS011;23311;48.776;9.162;2023-04-03T15:25:09;2.83;;;1.67;;
291;SDS011;23311;48.776;9.162;2023-04-03T15:27:38;2.13;;;1.63;;
291;SDS011;23311;48.776;9.162;2023-04-03T15:30:08;4.23;;;2.03;;
291;SDS011;23311;48.776;9.162;2023-04-03T15:32:40;2.73;;;1.47;;
291;SDS011;23311;48.776;9.162;2023-04-03T15:35:08;3.20;;;2.13;;
291;SDS011;23311;48.776;9.162;2023-04-03T15:37:36;5.80;;;4.33;;
291;SDS011;23311;48.776;9.162;2023-04-03T15:40:06;3.10;;;1.87;;
291;SDS011;23311;48.776;9.162;2023-04-03T15:42:35;2.70;;;1.53;;
291;SDS011;23311;48.776;9.162;2023-04-03T15:45:04;3.63;;;1.77;;
291;SDS011;23311;48.776;9.162;2023-04-03T15:47:33;4.57;;;2.30;;
291;SDS011;23311;48.776;9.162;2023-04-03T15:50:01;3.73;;;1.60;;
291;SDS011;23311;48.776;9.162;2023-04-03T15:52:32;2.80;;;1.50;;
291;SDS011;23311;48.776;9.162;2023-04-03T15:55:00;2.47;;;1.73;;
291;SDS011;23311;48.776;9.162;2023-04-03T15:57:30;3.13;;;1.77;;
291;SDS011;23311;48.776;9.162;2023-04-03T16:00:03;2.60;;;1.90;;
291;SDS011;23311;48.776;9.162;2023-04-03T16:02:33;2.93;;;1.60;;
291;SDS011;23311;48.776;9.162;2023-04-03T16:05:02;2.40;;;1.60;;
291;SDS011;23311;48.776;9.162;2023-04-03T16:07:32;2.53;;;1.50;;
291;SDS011;23311;48.776;9.162;2023-04-03T16:10:00;2.03;;;1.67;;